sensor_id;sensor_type;location;lat;lon;timestamp;temperature;humidity
652;DHT22;310;48.490;9.200;2023-02-11T00:01:12;3.00;30.40
652;DHT22;310;48.490;9.200;2023-02-11T00:03:41;3.30;30.00
652;DHT22;310;48.490;9.200;2023-02-11T00:06:07;3.20;30.00
652;DHT22;310;48.490;9.200;2023-02-11T00:08:36;2.80;30.60
652;DHT22;310;48.490;9.200;2023-02-11T00:11:02;2.20;32.80
652;DHT22;310;48.490;9.200;2023-02-11T00:13:28;2.30;32.90
652;DHT22;310;48.490;9.200;2023-02-11T00:15:54;2.50;32.00
652;DHT22;310;48.490;9.200;2023-02-11T00:18:20;2.90;31.20
652;DHT22;310;48.490;9.200;2023-02-11T00:20:46;3.10;30.70
652;DHT22;310;48.490;9.200;2023-02-11T00:23:11;3.30;30.40
652;DHT22;310;48.490;9.200;2023-02-11T00:25:42;3.00;31.30
652;DHT22;310;48.490;9.200;2023-02-11T00:28:09;2.70;31.80
652;DHT22;310;48.490;9.200;2023-02-11T00:30:35;2.80;32.30
652;DHT22;310;48.490;9.200;2023-02-11T00:33:01;2.80;32.40
652;DHT22;310;48.490;9.200;2023-02-11T00:35:27;2.80;32.20
652;DHT22;310;48.490;9.200;2023-02-11T00:37:54;2.60;32.80
652;DHT22;310;48.490;9.200;2023-02-11T00:40:19;2.70;33.10
652;DHT22;310;48.490;9.200;2023-02-11T00:42:45;2.60;32.80
652;DHT22;310;48.490;9.200;2023-02-11T00:45:11;2.50;32.70
652;DHT22;310;48.490;9.200;2023-02-11T00:47:36;2.40;33.10
652;DHT22;310;48.490;9.200;2023-02-11T00:50:04;2.30;32.50
652;DHT22;310;48.490;9.200;2023-02-11T00:52:30;2.50;32.60
652;DHT22;310;48.490;9.200;2023-02-11T00:54:56;2.50;33.20
652;DHT22;310;48.490;9.200;2023-02-11T00:57:22;2.60;32.60
652;DHT22;310;48.490;9.200;2023-02-11T00:59:47;2.70;32.10
652;DHT22;310;48.490;9.200;2023-02-11T01:02:13;2.80;31.90
652;DHT22;310;48.490;9.200;2023-02-11T01:04:39;2.90;32.00
652;DHT22;310;48.490;9.200;2023-02-11T01:07:05;3.10;31.00
652;DHT22;310;48.490;9.200;2023-02-11T01:09:30;3.10;30.80
652;DHT22;310;48.490;9.200;2023-02-11T01:11:56;3.10;31.40
652;DHT22;310;48.490;9.200;2023-02-11T01:14:21;2.80;32.20
652;DHT22;310;48.490;9.200;2023-02-11T01:16:47;2.70;32.30
652;DHT22;310;48.490;9.200;2023-02-11T01:19:13;2.80;31.90
652;DHT22;310;48.490;9.200;2023-02-11T01:21:38;2.50;32.70
652;DHT22;310;48.490;9.200;2023-02-11T01:24:04;2.60;32.70
652;DHT22;310;48.490;9.200;2023-02-11T01:26:30;2.90;31.60
652;DHT22;310;48.490;9.200;2023-02-11T01:28:55;2.90;31.00
652;DHT22;310;48.490;9.200;2023-02-11T01:31:21;2.80;32.30
652;DHT22;310;48.490;9.200;2023-02-11T01:33:47;2.60;32.10
652;DHT22;310;48.490;9.200;2023-02-11T01:36:13;1.60;34.50
652;DHT22;310;48.490;9.200;2023-02-11T01:38:39;1.70;35.30
652;DHT22;310;48.490;9.200;2023-02-11T01:41:08;2.20;33.70
652;DHT22;310;48.490;9.200;2023-02-11T01:43:37;2.50;32.80
652;DHT22;310;48.490;9.200;2023-02-11T01:48:53;2.80;32.10
652;DHT22;310;48.490;9.200;2023-02-11T01:51:24;2.80;32.30
652;DHT22;310;48.490;9.200;2023-02-11T01:53:51;2.90;31.30
652;DHT22;310;48.490;9.200;2023-02-11T01:56:38;3.00;31.10
652;DHT22;310;48.490;9.200;2023-02-11T01:59:37;2.70;31.80
652;DHT22;310;48.490;9.200;2023-02-11T02:02:07;2.70;32.60
652;DHT22;310;48.490;9.200;2023-02-11T02:04:43;2.60;32.10
652;DHT22;310;48.490;9.200;2023-02-11T02:07:16;2.50;32.30
652;DHT22;310;48.490;9.200;2023-02-11T02:09:47;2.40;32.90
652;DHT22;310;48.490;9.200;2023-02-11T02:12:14;2.30;33.00
652;DHT22;310;48.490;9.200;2023-02-11T02:14:41;2.20;32.80
652;DHT22;310;48.490;9.200;2023-02-11T02:17:20;2.20;32.90
652;DHT22;310;48.490;9.200;2023-02-11T02:20:08;2.50;32.20
652;DHT22;310;48.490;9.200;2023-02-11T02:31:31;2.10;33.00
652;DHT22;310;48.490;9.200;2023-02-11T02:34:11;2.20;33.00
652;DHT22;310;48.490;9.200;2023-02-11T02:36:46;2.40;32.20
652;DHT22;310;48.490;9.200;2023-02-11T02:39:23;2.50;31.90
652;DHT22;310;48.490;9.200;2023-02-11T02:41:50;2.30;33.00
652;DHT22;310;48.490;9.200;2023-02-11T02:44:18;2.20;33.50
652;DHT22;310;48.490;9.200;2023-02-11T02:46:44;2.20;32.90
652;DHT22;310;48.490;9.200;2023-02-11T02:49:12;1.80;32.40
652;DHT22;310;48.490;9.200;2023-02-11T02:57:37;2.50;32.80
652;DHT22;310;48.490;9.200;2023-02-11T03:03:16;2.40;33.40
652;DHT22;310;48.490;9.200;2023-02-11T03:08:28;2.70;32.40
652;DHT22;310;48.490;9.200;2023-02-11T03:10:55;2.40;33.00
652;DHT22;310;48.490;9.200;2023-02-11T03:13:26;2.30;33.40
652;DHT22;310;48.490;9.200;2023-02-11T03:15:56;2.20;34.00
652;DHT22;310;48.490;9.200;2023-02-11T03:18:26;2.20;34.40
652;DHT22;310;48.490;9.200;2023-02-11T03:20:53;2.20;34.00
652;DHT22;310;48.490;9.200;2023-02-11T03:23:27;2.20;34.70
652;DHT22;310;48.490;9.200;2023-02-11T03:26:08;2.20;34.10
652;DHT22;310;48.490;9.200;2023-02-11T03:31:17;2.90;33.40
652;DHT22;310;48.490;9.200;2023-02-11T03:34:15;2.40;33.80
652;DHT22;310;48.490;9.200;2023-02-11T03:39:35;2.70;32.10
652;DHT22;310;48.490;9.200;2023-02-11T03:42:03;2.90;32.00
652;DHT22;310;48.490;9.200;2023-02-11T03:44:36;2.70;32.60
652;DHT22;310;48.490;9.200;2023-02-11T03:47:05;2.50;33.30
652;DHT22;310;48.490;9.200;2023-02-11T03:49:32;2.40;33.60
652;DHT22;310;48.490;9.200;2023-02-11T03:52:00;2.30;33.70
652;DHT22;310;48.490;9.200;2023-02-11T03:54:29;2.40;33.40
652;DHT22;310;48.490;9.200;2023-02-11T03:56:58;2.30;33.60
652;DHT22;310;48.490;9.200;2023-02-11T03:59:24;2.30;34.50
652;DHT22;310;48.490;9.200;2023-02-11T04:01:50;2.30;33.90
652;DHT22;310;48.490;9.200;2023-02-11T04:04:16;2.20;34.40
652;DHT22;310;48.490;9.200;2023-02-11T04:06:42;2.10;33.80
652;DHT22;310;48.490;9.200;2023-02-11T04:09:09;2.00;34.00
652;DHT22;310;48.490;9.200;2023-02-11T04:11:34;2.30;33.80
652;DHT22;310;48.490;9.200;2023-02-11T04:14:00;2.30;33.40
652;DHT22;310;48.490;9.200;2023-02-11T04:16:26;2.10;34.00
652;DHT22;310;48.490;9.200;2023-02-11T04:18:52;2.00;34.60
652;DHT22;310;48.490;9.200;2023-02-11T04:21:17;2.10;34.80
652;DHT22;310;48.490;9.200;2023-02-11T04:23:43;2.00;34.80
652;DHT22;310;48.490;9.200;2023-02-11T04:26:08;2.20;34.70
652;DHT22;310;48.490;9.200;2023-02-11T04:28:34;2.10;34.70
652;DHT22;310;48.490;9.200;2023-02-11T04:31:00;2.10;34.10
652;DHT22;310;48.490;9.200;2023-02-11T04:33:26;2.30;34.50
652;DHT22;310;48.490;9.200;2023-02-11T04:35:51;2.60;34.60
652;DHT22;310;48.490;9.200;2023-02-11T04:38:17;2.60;33.00
652;DHT22;310;48.490;9.200;2023-02-11T04:40:43;2.70;32.80
652;DHT22;310;48.490;9.200;2023-02-11T04:43:08;2.30;33.60
652;DHT22;310;48.490;9.200;2023-02-11T04:45:34;2.10;34.50
652;DHT22;310;48.490;9.200;2023-02-11T04:48:03;2.10;34.80
652;DHT22;310;48.490;9.200;2023-02-11T04:50:28;2.10;34.70
652;DHT22;310;48.490;9.200;2023-02-11T04:52:54;1.70;35.40
652;DHT22;310;48.490;9.200;2023-02-11T04:55:20;1.90;35.90
652;DHT22;310;48.490;9.200;2023-02-11T04:57:45;2.30;34.60
652;DHT22;310;48.490;9.200;2023-02-11T05:00:11;2.10;35.00
652;DHT22;310;48.490;9.200;2023-02-11T05:02:37;2.00;35.00
652;DHT22;310;48.490;9.200;2023-02-11T05:05:03;1.70;36.80
652;DHT22;310;48.490;9.200;2023-02-11T05:07:29;1.70;36.20
652;DHT22;310;48.490;9.200;2023-02-11T05:09:54;1.90;36.10
652;DHT22;310;48.490;9.200;2023-02-11T05:12:20;2.20;35.40
652;DHT22;310;48.490;9.200;2023-02-11T05:14:46;2.50;35.00
652;DHT22;310;48.490;9.200;2023-02-11T05:17:11;3.00;33.70
652;DHT22;310;48.490;9.200;2023-02-11T05:19:37;3.20;33.10
652;DHT22;310;48.490;9.200;2023-02-11T05:22:03;3.30;33.00
652;DHT22;310;48.490;9.200;2023-02-11T05:24:30;3.20;33.60
652;DHT22;310;48.490;9.200;2023-02-11T05:26:56;3.20;33.60
652;DHT22;310;48.490;9.200;2023-02-11T05:29:22;3.20;33.70
652;DHT22;310;48.490;9.200;2023-02-11T05:31:47;3.20;33.40
652;DHT22;310;48.490;9.200;2023-02-11T05:34:13;3.20;33.20
652;DHT22;310;48.490;9.200;2023-02-11T05:36:39;3.00;32.10
652;DHT22;310;48.490;9.200;2023-02-11T05:39:04;2.60;34.20
652;DHT22;310;48.490;9.200;2023-02-11T05:41:30;2.90;34.50
652;DHT22;310;48.490;9.200;2023-02-11T05:43:56;3.10;33.50
652;DHT22;310;48.490;9.200;2023-02-11T05:46:21;3.60;32.00
652;DHT22;310;48.490;9.200;2023-02-11T05:48:47;3.50;32.20
652;DHT22;310;48.490;9.200;2023-02-11T05:51:12;3.40;32.70
652;DHT22;310;48.490;9.200;2023-02-11T05:53:38;3.30;33.20
652;DHT22;310;48.490;9.200;2023-02-11T05:56:04;3.40;33.10
652;DHT22;310;48.490;9.200;2023-02-11T05:58:29;3.40;33.20
652;DHT22;310;48.490;9.200;2023-02-11T06:00:55;3.40;33.70
652;DHT22;310;48.490;9.200;2023-02-11T06:03:20;3.20;34.30
652;DHT22;310;48.490;9.200;2023-02-11T06:05:46;3.00;34.50
652;DHT22;310;48.490;9.200;2023-02-11T06:08:12;3.20;34.20
652;DHT22;310;48.490;9.200;2023-02-11T06:10:37;3.50;32.70
652;DHT22;310;48.490;9.200;2023-02-11T06:13:03;3.60;32.40
652;DHT22;310;48.490;9.200;2023-02-11T06:15:29;3.70;32.40
652;DHT22;310;48.490;9.200;2023-02-11T06:17:55;3.80;32.20
652;DHT22;310;48.490;9.200;2023-02-11T06:20:21;3.80;32.60
652;DHT22;310;48.490;9.200;2023-02-11T06:22:46;3.60;33.30
652;DHT22;310;48.490;9.200;2023-02-11T06:25:12;3.60;32.80
652;DHT22;310;48.490;9.200;2023-02-11T06:27:38;3.00;34.00
652;DHT22;310;48.490;9.200;2023-02-11T06:30:04;3.10;34.10
652;DHT22;310;48.490;9.200;2023-02-11T06:32:30;3.10;33.90
652;DHT22;310;48.490;9.200;2023-02-11T06:34:56;2.90;34.40
652;DHT22;310;48.490;9.200;2023-02-11T06:37:21;2.80;35.00
652;DHT22;310;48.490;9.200;2023-02-11T06:39:47;3.20;34.60
652;DHT22;310;48.490;9.200;2023-02-11T06:42:12;3.40;34.10
652;DHT22;310;48.490;9.200;2023-02-11T06:44:38;3.40;33.10
652;DHT22;310;48.490;9.200;2023-02-11T06:47:04;3.20;33.60
652;DHT22;310;48.490;9.200;2023-02-11T06:49:29;3.50;33.40
652;DHT22;310;48.490;9.200;2023-02-11T06:51:55;3.40;33.20
652;DHT22;310;48.490;9.200;2023-02-11T06:54:21;3.50;33.40
652;DHT22;310;48.490;9.200;2023-02-11T06:56:46;3.80;33.50
652;DHT22;310;48.490;9.200;2023-02-11T06:59:17;3.80;33.50
652;DHT22;310;48.490;9.200;2023-02-11T07:01:43;3.80;32.90
652;DHT22;310;48.490;9.200;2023-02-11T07:04:09;3.70;32.70
652;DHT22;310;48.490;9.200;2023-02-11T07:06:35;4.00;32.30
652;DHT22;310;48.490;9.200;2023-02-11T07:09:03;4.10;32.10
652;DHT22;310;48.490;9.200;2023-02-11T07:11:29;4.20;32.00
652;DHT22;310;48.490;9.200;2023-02-11T07:13:59;3.50;32.90
652;DHT22;310;48.490;9.200;2023-02-11T07:16:25;3.40;34.10
652;DHT22;310;48.490;9.200;2023-02-11T07:18:50;3.80;32.70
652;DHT22;310;48.490;9.200;2023-02-11T07:21:18;3.90;32.50
652;DHT22;310;48.490;9.200;2023-02-11T07:23:44;4.20;32.30
652;DHT22;310;48.490;9.200;2023-02-11T07:26:12;4.20;32.10
652;DHT22;310;48.490;9.200;2023-02-11T07:28:39;4.20;32.30
652;DHT22;310;48.490;9.200;2023-02-11T07:31:06;4.20;31.90
652;DHT22;310;48.490;9.200;2023-02-11T07:33:33;4.20;32.40
652;DHT22;310;48.490;9.200;2023-02-11T07:36:00;4.30;32.50
652;DHT22;310;48.490;9.200;2023-02-11T07:38:26;4.10;32.60
652;DHT22;310;48.490;9.200;2023-02-11T07:40:52;4.10;32.40
652;DHT22;310;48.490;9.200;2023-02-11T07:43:17;3.60;33.90
652;DHT22;310;48.490;9.200;2023-02-11T07:45:43;4.00;34.00
652;DHT22;310;48.490;9.200;2023-02-11T07:48:08;3.90;33.60
652;DHT22;310;48.490;9.200;2023-02-11T07:50:34;4.00;33.30
652;DHT22;310;48.490;9.200;2023-02-11T07:53:00;4.40;32.30
652;DHT22;310;48.490;9.200;2023-02-11T07:55:26;4.60;31.70
652;DHT22;310;48.490;9.200;2023-02-11T07:57:51;4.70;31.70
652;DHT22;310;48.490;9.200;2023-02-11T08:00:17;4.90;31.50
652;DHT22;310;48.490;9.200;2023-02-11T08:02:42;4.30;32.50
652;DHT22;310;48.490;9.200;2023-02-11T08:05:08;4.20;33.50
652;DHT22;310;48.490;9.200;2023-02-11T08:07:34;4.60;32.90
652;DHT22;310;48.490;9.200;2023-02-11T08:09:59;5.20;31.70
652;DHT22;310;48.490;9.200;2023-02-11T08:12:25;5.00;31.90
652;DHT22;310;48.490;9.200;2023-02-11T08:14:50;5.10;31.60
652;DHT22;310;48.490;9.200;2023-02-11T08:17:16;5.30;31.70
652;DHT22;310;48.490;9.200;2023-02-11T08:19:42;5.50;31.10
652;DHT22;310;48.490;9.200;2023-02-11T08:22:07;5.80;30.40
652;DHT22;310;48.490;9.200;2023-02-11T08:24:33;6.00;30.00
652;DHT22;310;48.490;9.200;2023-02-11T08:26:58;6.20;29.50
652;DHT22;310;48.490;9.200;2023-02-11T08:29:24;6.00;29.60
652;DHT22;310;48.490;9.200;2023-02-11T08:31:50;6.10;29.40
652;DHT22;310;48.490;9.200;2023-02-11T08:34:16;6.00;30.00
652;DHT22;310;48.490;9.200;2023-02-11T08:36:45;5.50;30.80
652;DHT22;310;48.490;9.200;2023-02-11T08:39:19;5.40;31.50
652;DHT22;310;48.490;9.200;2023-02-11T08:41:51;5.60;31.60
652;DHT22;310;48.490;9.200;2023-02-11T08:44:18;6.30;30.10
652;DHT22;310;48.490;9.200;2023-02-11T08:46:45;5.80;30.80
652;DHT22;310;48.490;9.200;2023-02-11T08:49:10;6.20;30.10
652;DHT22;310;48.490;9.200;2023-02-11T08:51:36;6.20;30.00
652;DHT22;310;48.490;9.200;2023-02-11T08:54:02;6.30;30.10
652;DHT22;310;48.490;9.200;2023-02-11T08:56:28;6.20;30.10
652;DHT22;310;48.490;9.200;2023-02-11T08:58:55;6.40;30.20
652;DHT22;310;48.490;9.200;2023-02-11T09:01:24;6.40;30.00
652;DHT22;310;48.490;9.200;2023-02-11T09:03:50;6.10;30.00
652;DHT22;310;48.490;9.200;2023-02-11T09:06:16;6.10;30.10
652;DHT22;310;48.490;9.200;2023-02-11T09:08:46;6.30;30.10
652;DHT22;310;48.490;9.200;2023-02-11T09:11:13;6.90;29.00
652;DHT22;310;48.490;9.200;2023-02-11T09:13:40;7.20;28.30
652;DHT22;310;48.490;9.200;2023-02-11T09:16:07;7.60;27.70
652;DHT22;310;48.490;9.200;2023-02-11T09:18:33;7.80;27.50
652;DHT22;310;48.490;9.200;2023-02-11T09:21:07;7.90;27.50
652;DHT22;310;48.490;9.200;2023-02-11T09:23:34;7.50;28.10
652;DHT22;310;48.490;9.200;2023-02-11T09:26:05;7.80;28.00
652;DHT22;310;48.490;9.200;2023-02-11T09:28:31;8.10;27.40
652;DHT22;310;48.490;9.200;2023-02-11T09:30:57;8.10;27.40
652;DHT22;310;48.490;9.200;2023-02-11T09:33:22;8.10;27.30
652;DHT22;310;48.490;9.200;2023-02-11T09:35:48;8.30;27.20
652;DHT22;310;48.490;9.200;2023-02-11T09:38:14;7.60;28.20
652;DHT22;310;48.490;9.200;2023-02-11T09:40:43;6.80;29.40
652;DHT22;310;48.490;9.200;2023-02-11T09:45:38;5.80;32.20
652;DHT22;310;48.490;9.200;2023-02-11T09:50:57;6.70;30.50
652;DHT22;310;48.490;9.200;2023-02-11T09:53:30;7.30;29.70
652;DHT22;310;48.490;9.200;2023-02-11T09:55:59;7.10;29.90
652;DHT22;310;48.490;9.200;2023-02-11T09:58:33;7.20;29.60
652;DHT22;310;48.490;9.200;2023-02-11T10:04:06;6.70;31.30
652;DHT22;310;48.490;9.200;2023-02-11T10:09:32;6.80;31.50
652;DHT22;310;48.490;9.200;2023-02-11T10:12:14;7.10;30.80
652;DHT22;310;48.490;9.200;2023-02-11T10:21:09;6.80;31.80
652;DHT22;310;48.490;9.200;2023-02-11T10:23:41;7.10;30.80
652;DHT22;310;48.490;9.200;2023-02-11T10:26:17;7.20;30.90
652;DHT22;310;48.490;9.200;2023-02-11T10:28:45;7.30;30.50
652;DHT22;310;48.490;9.200;2023-02-11T10:31:24;7.50;30.10
652;DHT22;310;48.490;9.200;2023-02-11T10:34:07;7.60;29.60
652;DHT22;310;48.490;9.200;2023-02-11T10:36:37;7.90;29.70
652;DHT22;310;48.490;9.200;2023-02-11T10:39:29;8.20;29.30
652;DHT22;310;48.490;9.200;2023-02-11T10:42:04;8.40;29.00
652;DHT22;310;48.490;9.200;2023-02-11T10:47:21;8.40;29.40
652;DHT22;310;48.490;9.200;2023-02-11T10:49:48;8.70;28.70
652;DHT22;310;48.490;9.200;2023-02-11T10:57:37;9.50;28.60
652;DHT22;310;48.490;9.200;2023-02-11T11:00:30;9.80;26.90
652;DHT22;310;48.490;9.200;2023-02-11T11:02:58;9.80;26.90
652;DHT22;310;48.490;9.200;2023-02-11T11:05:57;9.50;26.90
652;DHT22;310;48.490;9.200;2023-02-11T11:11:11;9.20;28.70
652;DHT22;310;48.490;9.200;2023-02-11T11:13:38;9.30;27.50
652;DHT22;310;48.490;9.200;2023-02-11T11:18:36;10.40;25.70
652;DHT22;310;48.490;9.200;2023-02-11T11:21:17;11.20;24.50
652;DHT22;310;48.490;9.200;2023-02-11T11:23:58;11.20;25.00
652;DHT22;310;48.490;9.200;2023-02-11T11:26:50;12.10;23.10
652;DHT22;310;48.490;9.200;2023-02-11T11:29:37;11.70;23.30
652;DHT22;310;48.490;9.200;2023-02-11T11:32:28;12.00;23.50
652;DHT22;310;48.490;9.200;2023-02-11T11:35:00;12.60;22.10
652;DHT22;310;48.490;9.200;2023-02-11T11:37:33;12.00;23.40
652;DHT22;310;48.490;9.200;2023-02-11T11:40:19;11.90;22.90
652;DHT22;310;48.490;9.200;2023-02-11T11:43:02;13.10;22.80
652;DHT22;310;48.490;9.200;2023-02-11T11:45:28;13.70;20.90
652;DHT22;310;48.490;9.200;2023-02-11T11:48:20;13.70;21.50
652;DHT22;310;48.490;9.200;2023-02-11T11:53:28;14.10;20.30
652;DHT22;310;48.490;9.200;2023-02-11T11:58:36;15.90;18.30
652;DHT22;310;48.490;9.200;2023-02-11T12:18:29;16.60;17.70
652;DHT22;310;48.490;9.200;2023-02-11T12:21:21;15.80;17.90
652;DHT22;310;48.490;9.200;2023-02-11T12:34:48;16.20;18.20
652;DHT22;310;48.490;9.200;2023-02-11T12:54:26;16.80;18.10
652;DHT22;310;48.490;9.200;2023-02-11T12:57:04;16.90;17.40
652;DHT22;310;48.490;9.200;2023-02-11T12:59:54;17.60;17.30
652;DHT22;310;48.490;9.200;2023-02-11T13:02:35;16.30;17.50
652;DHT22;310;48.490;9.200;2023-02-11T13:07:43;13.60;21.40
652;DHT22;310;48.490;9.200;2023-02-11T13:12:39;14.70;20.60
652;DHT22;310;48.490;9.200;2023-02-11T13:15:27;15.60;19.20
652;DHT22;310;48.490;9.200;2023-02-11T13:24:00;14.10;21.80
652;DHT22;310;48.490;9.200;2023-02-11T13:31:30;13.20;21.80
652;DHT22;310;48.490;9.200;2023-02-11T13:33:56;13.30;22.40
652;DHT22;310;48.490;9.200;2023-02-11T13:36:24;12.70;22.80
652;DHT22;310;48.490;9.200;2023-02-11T13:38:54;13.70;21.50
652;DHT22;310;48.490;9.200;2023-02-11T13:46:53;14.40;21.40
652;DHT22;310;48.490;9.200;2023-02-11T13:49:26;14.40;20.60
652;DHT22;310;48.490;9.200;2023-02-11T13:51:54;15.10;20.00
652;DHT22;310;48.490;9.200;2023-02-11T13:54:33;16.50;18.50
652;DHT22;310;48.490;9.200;2023-02-11T13:59:46;18.40;16.20
652;DHT22;310;48.490;9.200;2023-02-11T14:02:34;18.10;16.10
652;DHT22;310;48.490;9.200;2023-02-11T14:05:24;19.30;15.30
652;DHT22;310;48.490;9.200;2023-02-11T14:16:15;19.60;15.20
652;DHT22;310;48.490;9.200;2023-02-11T14:23:48;20.80;12.30
652;DHT22;310;48.490;9.200;2023-02-11T14:28:42;19.20;14.00
652;DHT22;310;48.490;9.200;2023-02-11T14:31:19;20.80;12.80
652;DHT22;310;48.490;9.200;2023-02-11T14:34:04;20.40;13.10
652;DHT22;310;48.490;9.200;2023-02-11T14:41:46;19.20;13.90
652;DHT22;310;48.490;9.200;2023-02-11T14:44:27;19.60;13.20
652;DHT22;310;48.490;9.200;2023-02-11T14:46:54;18.40;14.50
652;DHT22;310;48.490;9.200;2023-02-11T14:49:26;18.50;13.90
652;DHT22;310;48.490;9.200;2023-02-11T14:51:55;18.70;13.80
652;DHT22;310;48.490;9.200;2023-02-11T14:54:25;18.70;14.30
652;DHT22;310;48.490;9.200;2023-02-11T14:57:14;19.40;14.00
652;DHT22;310;48.490;9.200;2023-02-11T14:59:56;19.70;13.40
652;DHT22;310;48.490;9.200;2023-02-11T15:02:35;18.80;14.20
652;DHT22;310;48.490;9.200;2023-02-11T15:05:18;17.80;15.20
652;DHT22;310;48.490;9.200;2023-02-11T15:07:50;16.40;16.60
652;DHT22;310;48.490;9.200;2023-02-11T15:11:06;15.90;17.80
652;DHT22;310;48.490;9.200;2023-02-11T15:13:04;15.50;18.40
652;DHT22;310;48.490;9.200;2023-02-11T15:15:31;16.50;20.20
652;DHT22;310;48.490;9.200;2023-02-11T15:17:59;14.70;19.80
652;DHT22;310;48.490;9.200;2023-02-11T15:20:28;14.70;20.60
652;DHT22;310;48.490;9.200;2023-02-11T15:22:58;14.10;20.70
652;DHT22;310;48.490;9.200;2023-02-11T15:25:26;13.80;20.70
652;DHT22;310;48.490;9.200;2023-02-11T15:27:54;13.60;21.00
652;DHT22;310;48.490;9.200;2023-02-11T15:32:47;13.60;21.00
652;DHT22;310;48.490;9.200;2023-02-11T15:35:15;13.40;21.20
652;DHT22;310;48.490;9.200;2023-02-11T15:37:41;13.30;22.30
652;DHT22;310;48.490;9.200;2023-02-11T15:40:19;13.10;21.80
652;DHT22;310;48.490;9.200;2023-02-11T15:50:30;12.90;22.60
652;DHT22;310;48.490;9.200;2023-02-11T15:53:00;12.70;22.50
652;DHT22;310;48.490;9.200;2023-02-11T15:55:28;12.80;22.20
652;DHT22;310;48.490;9.200;2023-02-11T15:57:57;12.60;22.60
652;DHT22;310;48.490;9.200;2023-02-11T16:00:33;13.00;22.80
652;DHT22;310;48.490;9.200;2023-02-11T16:03:00;12.40;22.80
652;DHT22;310;48.490;9.200;2023-02-11T16:05:27;12.60;22.50
652;DHT22;310;48.490;9.200;2023-02-11T16:07:54;12.60;22.50
652;DHT22;310;48.490;9.200;2023-02-11T16:10:34;12.60;22.40
652;DHT22;310;48.490;9.200;2023-02-11T16:15:51;12.60;22.90
652;DHT22;310;48.490;9.200;2023-02-11T16:18:38;12.50;22.70
652;DHT22;310;48.490;9.200;2023-02-11T16:21:14;12.40;22.80
652;DHT22;310;48.490;9.200;2023-02-11T16:23:41;12.50;22.90
652;DHT22;310;48.490;9.200;2023-02-11T16:26:20;12.30;23.00
652;DHT22;310;48.490;9.200;2023-02-11T16:28:47;11.70;23.70
652;DHT22;310;48.490;9.200;2023-02-11T16:31:12;11.60;23.90
652;DHT22;310;48.490;9.200;2023-02-11T16:33:38;11.80;23.80
652;DHT22;310;48.490;9.200;2023-02-11T16:36:15;11.90;23.60
652;DHT22;310;48.490;9.200;2023-02-11T16:38:43;11.90;23.50
652;DHT22;310;48.490;9.200;2023-02-11T16:41:08;12.10;23.80
652;DHT22;310;48.490;9.200;2023-02-11T16:43:37;11.60;23.80
652;DHT22;310;48.490;9.200;2023-02-11T16:46:03;11.50;24.20
652;DHT22;310;48.490;9.200;2023-02-11T16:48:30;11.30;24.40
652;DHT22;310;48.490;9.200;2023-02-11T16:50:56;11.10;24.80
652;DHT22;310;48.490;9.200;2023-02-11T16:53:23;11.20;24.90
652;DHT22;310;48.490;9.200;2023-02-11T16:55:51;11.00;24.70
652;DHT22;310;48.490;9.200;2023-02-11T16:58:18;11.10;24.90
652;DHT22;310;48.490;9.200;2023-02-11T17:00:45;10.80;25.10
652;DHT22;310;48.490;9.200;2023-02-11T17:03:19;10.70;25.40
652;DHT22;310;48.490;9.200;2023-02-11T17:05:47;10.40;25.70
652;DHT22;310;48.490;9.200;2023-02-11T17:08:13;10.40;26.00
652;DHT22;310;48.490;9.200;2023-02-11T17:10:39;10.40;26.00
652;DHT22;310;48.490;9.200;2023-02-11T17:13:05;10.20;26.00
652;DHT22;310;48.490;9.200;2023-02-11T17:15:30;10.00;26.40
652;DHT22;310;48.490;9.200;2023-02-11T17:17:56;9.70;27.90
652;DHT22;310;48.490;9.200;2023-02-11T17:20:22;9.80;28.00
652;DHT22;310;48.490;9.200;2023-02-11T17:22:48;9.80;28.20
652;DHT22;310;48.490;9.200;2023-02-11T17:25:14;9.80;28.70
652;DHT22;310;48.490;9.200;2023-02-11T17:27:40;10.00;27.90
652;DHT22;310;48.490;9.200;2023-02-11T17:30:06;10.10;27.90
652;DHT22;310;48.490;9.200;2023-02-11T17:32:32;9.80;29.00
652;DHT22;310;48.490;9.200;2023-02-11T17:34:58;10.10;28.30
652;DHT22;310;48.490;9.200;2023-02-11T17:37:23;10.10;28.00
652;DHT22;310;48.490;9.200;2023-02-11T17:39:49;10.20;28.00
652;DHT22;310;48.490;9.200;2023-02-11T17:42:15;10.30;27.80
652;DHT22;310;48.490;9.200;2023-02-11T17:44:43;10.30;27.50
652;DHT22;310;48.490;9.200;2023-02-11T17:47:09;10.20;27.60
652;DHT22;310;48.490;9.200;2023-02-11T17:49:35;10.20;27.80
652;DHT22;310;48.490;9.200;2023-02-11T17:52:00;10.10;27.80
652;DHT22;310;48.490;9.200;2023-02-11T17:54:26;10.20;28.20
652;DHT22;310;48.490;9.200;2023-02-11T17:56:52;10.10;28.20
652;DHT22;310;48.490;9.200;2023-02-11T17:59:18;10.00;28.40
652;DHT22;310;48.490;9.200;2023-02-11T18:01:44;10.00;28.50
652;DHT22;310;48.490;9.200;2023-02-11T18:04:16;9.90;29.40
652;DHT22;310;48.490;9.200;2023-02-11T18:06:42;9.80;29.40
652;DHT22;310;48.490;9.200;2023-02-11T18:09:08;9.70;29.50
652;DHT22;310;48.490;9.200;2023-02-11T18:11:36;9.60;30.00
652;DHT22;310;48.490;9.200;2023-02-11T18:14:03;9.80;30.00
652;DHT22;310;48.490;9.200;2023-02-11T18:16:32;9.90;29.90
652;DHT22;310;48.490;9.200;2023-02-11T18:18:59;9.90;29.90
652;DHT22;310;48.490;9.200;2023-02-11T18:21:26;9.90;29.90
652;DHT22;310;48.490;9.200;2023-02-11T18:23:52;9.90;30.40
652;DHT22;310;48.490;9.200;2023-02-11T18:26:20;9.60;30.70
652;DHT22;310;48.490;9.200;2023-02-11T18:28:46;9.70;30.70
652;DHT22;310;48.490;9.200;2023-02-11T18:31:12;9.90;30.40
652;DHT22;310;48.490;9.200;2023-02-11T18:33:39;10.00;29.70
652;DHT22;310;48.490;9.200;2023-02-11T18:36:10;10.10;29.40
652;DHT22;310;48.490;9.200;2023-02-11T18:38:35;10.10;29.30
652;DHT22;310;48.490;9.200;2023-02-11T18:41:02;10.20;29.30
652;DHT22;310;48.490;9.200;2023-02-11T18:43:28;10.10;29.50
652;DHT22;310;48.490;9.200;2023-02-11T18:45:56;10.20;29.40
652;DHT22;310;48.490;9.200;2023-02-11T18:48:22;9.90;31.30
652;DHT22;310;48.490;9.200;2023-02-11T18:50:48;9.80;31.50
652;DHT22;310;48.490;9.200;2023-02-11T18:53:14;9.60;32.80
652;DHT22;310;48.490;9.200;2023-02-11T18:55:42;9.50;32.40
652;DHT22;310;48.490;9.200;2023-02-11T18:58:08;9.50;32.90
652;DHT22;310;48.490;9.200;2023-02-11T19:00:34;9.60;31.80
652;DHT22;310;48.490;9.200;2023-02-11T19:03:00;9.60;32.40
652;DHT22;310;48.490;9.200;2023-02-11T19:05:26;9.80;31.40
652;DHT22;310;48.490;9.200;2023-02-11T19:07:57;9.70;32.50
652;DHT22;310;48.490;9.200;2023-02-11T19:10:23;9.30;32.60
652;DHT22;310;48.490;9.200;2023-02-11T19:12:51;9.50;31.80
652;DHT22;310;48.490;9.200;2023-02-11T19:15:17;9.50;32.50
652;DHT22;310;48.490;9.200;2023-02-11T19:17:42;9.10;32.60
652;DHT22;310;48.490;9.200;2023-02-11T19:20:08;9.30;32.70
652;DHT22;310;48.490;9.200;2023-02-11T19:22:34;9.40;32.80
652;DHT22;310;48.490;9.200;2023-02-11T19:25:00;9.60;31.50
652;DHT22;310;48.490;9.200;2023-02-11T19:27:25;9.70;31.00
652;DHT22;310;48.490;9.200;2023-02-11T19:29:51;9.70;30.80
652;DHT22;310;48.490;9.200;2023-02-11T19:32:16;9.70;30.80
652;DHT22;310;48.490;9.200;2023-02-11T19:34:42;9.70;30.70
652;DHT22;310;48.490;9.200;2023-02-11T19:37:09;9.70;30.70
652;DHT22;310;48.490;9.200;2023-02-11T19:39:41;9.50;31.10
652;DHT22;310;48.490;9.200;2023-02-11T19:42:07;9.50;31.90
652;DHT22;310;48.490;9.200;2023-02-11T19:44:32;9.50;32.50
652;DHT22;310;48.490;9.200;2023-02-11T19:46:58;9.40;32.30